createdAt,value
2018-09-07T00:00:49.018Z,16.85
2018-09-07T00:01:49.041Z,16.83
2018-09-07T00:03:03.727Z,16.83
2018-09-07T00:03:49.091Z,16.85
2018-09-07T00:04:49.415Z,16.81
2018-09-07T00:05:49.140Z,16.76
2018-09-07T00:06:49.161Z,16.78
2018-09-07T00:07:48.931Z,16.78
2018-09-07T00:08:48.950Z,16.79
2018-09-07T00:10:03.893Z,16.7
2018-09-07T00:10:49.258Z,16.73
2018-09-07T00:11:49.017Z,16.71
2018-09-07T00:12:49.042Z,16.67
2018-09-07T00:14:49.341Z,16.71
2018-09-07T00:15:49.104Z,16.64
2018-09-07T00:16:49.129Z,16.64
2018-09-07T00:17:49.410Z,16.68
2018-09-07T00:18:49.433Z,16.64
2018-09-07T00:20:04.119Z,16.66
2018-09-07T00:20:49.481Z,16.64
2018-09-07T00:21:49.244Z,16.61
2018-09-07T00:22:49.267Z,16.61
2018-09-07T00:23:49.293Z,16.67
2018-09-07T00:25:04.231Z,16.63
2018-09-07T00:25:49.590Z,16.61
2018-09-07T00:27:49.642Z,16.53
2018-09-07T00:28:49.662Z,16.58
2018-09-07T00:29:49.685Z,16.53
2018-09-07T00:30:49.713Z,16.66
2018-09-07T00:31:49.747Z,16.53
2018-09-07T00:32:49.498Z,16.53
2018-09-07T00:34:04.438Z,16.49
2018-09-07T00:34:49.542Z,16.53
2018-09-07T00:35:49.571Z,16.57
2018-09-07T00:36:49.847Z,16.52
2018-09-07T00:37:49.869Z,16.6
2018-09-07T00:38:49.632Z,16.58
2018-09-07T00:39:49.918Z,16.48
2018-09-07T00:40:49.682Z,16.5
2018-09-07T00:41:49.963Z,16.49
2018-09-07T00:42:49.998Z,16.43
2018-09-07T00:43:50.010Z,16.48
2018-09-07T00:44:49.768Z,16.5
2018-09-07T00:45:49.791Z,16.53
2018-09-07T00:47:49.583Z,16.46
2018-09-07T00:48:50.117Z,16.52
2018-09-07T00:49:49.883Z,16.52
2018-09-07T00:50:50.165Z,16.46
2018-09-07T00:52:04.848Z,16.57
2018-09-07T00:52:50.219Z,16.49
2018-09-07T00:53:49.976Z,16.49
2018-09-07T00:54:50.254Z,16.58
2018-09-07T00:55:50.288Z,16.46
2018-09-07T00:57:04.745Z,16.53
2018-09-07T00:57:50.069Z,16.6
2018-09-07T00:58:50.345Z,16.63
2018-09-07T01:00:50.396Z,16.64
2018-09-07T01:01:50.414Z,16.83
2018-09-07T01:02:50.436Z,16.86
2018-09-07T01:03:50.202Z,16.86
2018-09-07T01:04:50.481Z,16.93
2018-09-07T01:06:05.170Z,16.89
2018-09-07T01:06:50.534Z,16.98
2018-09-07T01:07:50.291Z,16.88
2018-09-07T01:08:50.572Z,17.07
2018-09-07T01:09:50.607Z,17.01
2018-09-07T01:10:50.620Z,17.11
2018-09-07T01:11:50.659Z,17.16
2018-09-07T01:13:05.324Z,17.14
2018-09-07T01:13:50.446Z,17.25
2018-09-07T01:14:50.456Z,17.21
2018-09-07T01:16:05.401Z,17.19
2018-09-07T01:16:50.763Z,17.21
2018-09-07T01:17:50.520Z,17.21
2018-09-07T01:18:50.803Z,17.25
2018-09-07T01:19:50.836Z,17.18
2018-09-07T01:20:50.589Z,17.28
2018-09-07T01:21:50.875Z,17.22
2018-09-07T01:22:50.636Z,17.23
2018-09-07T01:23:50.914Z,17.19
2018-09-07T01:24:50.942Z,17.18
2018-09-07T01:25:50.962Z,17.23
2018-09-07T01:26:50.985Z,17.22
2018-09-07T01:27:51.009Z,17.07
2018-09-07T01:29:05.698Z,17.15
2018-09-07T01:29:51.057Z,17.15
2018-09-07T01:30:51.094Z,17.14
2018-09-07T01:31:51.204Z,17
2018-09-07T01:32:51.122Z,17.04
2018-09-07T01:33:51.144Z,17.04
2018-09-07T01:34:51.171Z,17.07
2018-09-07T01:35:51.195Z,17.08
2018-09-07T01:36:51.212Z,17.07
2018-09-07T01:37:51.233Z,17.11
2018-09-07T01:39:05.663Z,17.04
2018-09-07T01:40:05.941Z,16.93
2018-09-07T01:40:50.790Z,16.93
2018-09-07T01:41:51.330Z,16.94
2018-09-07T01:42:51.348Z,16.98
2018-09-07T01:43:51.380Z,16.93
2018-09-07T01:45:05.802Z,16.91
2018-09-07T01:45:51.417Z,16.91
2018-09-07T01:46:51.439Z,16.88
2018-09-07T01:48:51.227Z,16.79
2018-09-07T01:49:51.507Z,16.89
2018-09-07T01:50:51.015Z,16.81
2018-09-07T01:51:51.557Z,16.78
2018-09-07T01:52:51.581Z,16.76
2018-09-07T01:53:51.342Z,16.64
2018-09-07T01:54:51.620Z,16.66
2018-09-07T01:55:51.646Z,16.63
2018-09-07T01:56:51.671Z,16.64
2018-09-07T01:57:51.692Z,16.63
2018-09-07T01:58:51.715Z,16.6
2018-09-07T02:00:06.398Z,16.64
2018-09-07T02:01:51.779Z,16.66
2018-09-07T02:02:51.802Z,16.64
2018-09-07T02:03:51.827Z,16.53
2018-09-07T02:04:51.857Z,16.57
2018-09-07T02:05:51.616Z,16.53
2018-09-07T02:06:51.637Z,16.5
2018-09-07T02:07:51.919Z,16.49
2018-09-07T02:08:51.944Z,16.57
2018-09-07T02:09:51.961Z,16.46
2018-09-07T02:10:51.986Z,16.48
2018-09-07T02:11:52.012Z,16.48
2018-09-07T02:12:52.034Z,16.38
2018-09-07T02:13:51.796Z,16.41
2018-09-07T02:14:52.180Z,16.49
2018-09-07T02:15:51.842Z,16.43
2018-09-07T02:16:52.130Z,16.5
2018-09-07T02:17:52.149Z,16.42
2018-09-07T02:19:52.187Z,16.5
2018-09-07T02:20:51.963Z,16.42
2018-09-07T02:21:52.238Z,16.42
2018-09-07T02:22:51.745Z,16.39
2018-09-07T02:23:52.279Z,16.38
2018-09-07T02:24:52.051Z,16.41
2018-09-07T02:26:06.730Z,16.48
2018-09-07T02:26:52.093Z,16.45
2018-09-07T02:27:52.384Z,16.41
2018-09-07T02:28:52.390Z,16.41
2018-09-07T02:29:52.155Z,16.33
2018-09-07T02:30:52.185Z,16.45
2018-09-07T02:32:07.121Z,16.45
2018-09-07T02:32:52.535Z,16.43
2018-09-07T02:33:52.516Z,16.41
2018-09-07T02:35:52.304Z,16.42
2018-09-07T02:37:52.340Z,16.41
2018-09-07T02:38:52.361Z,16.48
2018-09-07T02:39:52.384Z,16.52
2018-09-07T02:41:07.328Z,16.63
2018-09-07T02:41:52.430Z,16.7
2018-09-07T02:42:52.456Z,16.64
2018-09-07T02:43:52.735Z,16.78
2018-09-07T02:44:52.761Z,16.82
2018-09-07T02:45:52.781Z,16.85
2018-09-07T02:46:52.546Z,16.89
2018-09-07T02:48:07.485Z,16.82
2018-09-07T02:48:52.599Z,16.86
2018-09-07T02:49:52.869Z,16.83
2018-09-07T02:52:52.938Z,17
2018-09-07T02:53:52.969Z,16.91
2018-09-07T02:54:52.988Z,16.86
2018-09-07T02:55:53.005Z,16.82
2018-09-07T02:56:53.031Z,16.86
2018-09-07T02:57:53.051Z,16.82
2018-09-07T02:58:52.819Z,16.93
2018-09-07T02:59:53.097Z,16.86
2018-09-07T03:00:53.122Z,16.93
2018-09-07T03:01:52.883Z,16.85
2018-09-07T03:04:07.847Z,16.73
2018-09-07T03:04:52.951Z,16.71
2018-09-07T03:05:53.237Z,16.66
2018-09-07T03:06:52.996Z,16.64
2018-09-07T03:07:53.022Z,16.66
2018-09-07T03:08:53.302Z,16.64
2018-09-07T03:09:52.809Z,16.64
2018-09-07T03:10:53.351Z,16.64
2018-09-07T03:11:53.110Z,16.67
2018-09-07T03:13:08.054Z,16.61
2018-09-07T03:14:08.076Z,16.63
2018-09-07T03:14:53.444Z,16.6
2018-09-07T03:15:53.460Z,16.49
2018-09-07T03:16:53.225Z,16.52
2018-09-07T03:17:53.507Z,16.58
2018-09-07T03:18:53.525Z,16.52
2018-09-07T03:20:08.212Z,16.49
2018-09-07T03:20:53.570Z,16.48
2018-09-07T03:22:53.621Z,16.48
2018-09-07T03:23:53.392Z,16.5
2018-09-07T03:24:53.670Z,16.46
2018-09-07T03:25:53.687Z,16.45
2018-09-07T03:26:53.713Z,16.41
2018-09-07T03:27:53.478Z,16.41
2018-09-07T03:28:53.500Z,16.46
2018-09-07T03:30:08.441Z,16.42
2018-09-07T03:30:53.544Z,16.35
2018-09-07T03:31:53.826Z,16.3
2018-09-07T03:32:53.847Z,16.45
2018-09-07T03:33:53.869Z,16.41
2018-09-07T03:35:08.553Z,16.42
2018-09-07T03:35:53.915Z,16.49
2018-09-07T03:36:53.683Z,16.43
2018-09-07T03:37:53.959Z,16.25
2018-09-07T03:38:53.987Z,16.3
2018-09-07T03:39:54.016Z,16.48
2018-09-07T03:40:54.028Z,16.25
2018-09-07T03:43:08.744Z,16.34
2018-09-07T03:43:54.101Z,16.33
2018-09-07T03:44:54.122Z,16.3
2018-09-07T03:45:54.147Z,16.42
2018-09-07T03:46:53.915Z,16.35
2018-09-07T03:47:53.929Z,16.48
2018-09-07T03:48:53.952Z,16.45
2018-09-07T03:50:54.201Z,16.42
2018-09-07T03:51:54.278Z,16.46
2018-09-07T03:52:54.300Z,16.42
2018-09-07T03:53:54.323Z,16.46
2018-09-07T03:54:54.351Z,16.35
2018-09-07T03:55:54.111Z,16.28
2018-09-07T03:56:54.396Z,16.43
2018-09-07T03:57:54.566Z,16.24
2018-09-07T03:58:54.442Z,16.35
2018-09-07T04:00:09.118Z,16.31
2018-09-07T04:00:54.490Z,16.43
2018-09-07T04:01:54.346Z,16.35
2018-09-07T04:02:54.269Z,16.42
2018-09-07T04:04:54.322Z,16.48
2018-09-07T04:05:54.337Z,16.49
2018-09-07T04:07:09.284Z,16.41
2018-09-07T04:07:54.644Z,16.42
2018-09-07T04:08:54.666Z,16.41
2018-09-07T04:09:54.692Z,16.39
2018-09-07T04:10:54.452Z,16.48
2018-09-07T04:11:54.737Z,16.5
2018-09-07T04:14:09.437Z,16.48
2018-09-07T04:14:54.808Z,16.52
2018-09-07T04:15:54.924Z,16.39
2018-09-07T04:16:54.852Z,16.56
2018-09-07T04:17:54.869Z,16.43
2018-09-07T04:18:54.641Z,16.3
2018-09-07T04:19:54.910Z,16.31
2018-09-07T04:20:54.677Z,16.27
2018-09-07T04:21:54.958Z,16.38
2018-09-07T04:23:09.640Z,16.35
2018-09-07T04:23:54.743Z,16.2
2018-09-07T04:25:55.042Z,16.12
2018-09-07T04:26:54.813Z,16.09
2018-09-07T04:28:09.767Z,16.12
2018-09-07T04:28:55.112Z,16.04
2018-09-07T04:30:09.801Z,16.09
2018-09-07T04:30:55.158Z,16.09
2018-09-07T04:31:55.180Z,16.11
2018-09-07T04:32:54.953Z,16.11
2018-09-07T04:34:09.630Z,16.09
2018-09-07T04:34:54.994Z,16.09
2018-09-07T04:35:55.273Z,16.15
2018-09-07T04:36:55.304Z,16.17
2018-09-07T04:37:55.318Z,16.23
2018-09-07T04:39:09.999Z,16.05
2018-09-07T04:39:55.380Z,16.08
2018-09-07T04:40:55.389Z,15.97
2018-09-07T04:42:55.450Z,15.96
2018-09-07T04:43:55.448Z,15.94
2018-09-07T04:44:55.481Z,15.97
2018-09-07T04:45:55.506Z,15.92
2018-09-07T04:46:55.522Z,15.84
2018-09-07T04:47:55.293Z,15.89
2018-09-07T04:48:55.311Z,15.83
2018-09-07T04:50:10.244Z,16
2018-09-07T04:50:55.609Z,15.94
2018-09-07T04:51:55.628Z,15.93
2018-09-07T04:52:55.657Z,15.96
2018-09-07T04:53:55.679Z,15.92
2018-09-07T04:55:10.365Z,15.9
2018-09-07T04:55:55.464Z,15.9
2018-09-07T04:56:55.486Z,16.02
2018-09-07T04:57:55.507Z,16.01
2018-09-07T04:58:55.794Z,16.01
2018-09-07T04:59:55.813Z,16.08
2018-09-07T05:00:55.836Z,16.11
2018-09-07T05:01:55.348Z,16.05
2018-09-07T05:02:55.875Z,16.12
2018-09-07T05:04:10.607Z,16.12
2018-09-07T05:04:55.920Z,16.24
2018-09-07T05:05:55.689Z,16.21
2018-09-07T05:06:55.709Z,16.09
2018-09-07T05:07:55.989Z,16.08
2018-09-07T05:08:56.014Z,16.17
2018-09-07T05:10:10.694Z,16.14
2018-09-07T05:11:55.819Z,16.09
2018-09-07T05:12:55.843Z,16.14
2018-09-07T05:13:56.121Z,16.2
2018-09-07T05:14:56.147Z,16.11
2018-09-07T05:15:56.166Z,16.14
2018-09-07T05:16:55.936Z,16.09
2018-09-07T05:18:10.875Z,16.05
2018-09-07T05:18:56.232Z,16.07
2018-09-07T05:20:10.660Z,16.12
2018-09-07T05:20:55.767Z,16.2
2018-09-07T05:21:56.404Z,16.17
2018-09-07T05:22:56.324Z,16.25
2018-09-07T05:23:56.346Z,16.38
2018-09-07T05:24:56.374Z,16.28
2018-09-07T05:25:56.399Z,16.35
2018-09-07T05:26:56.417Z,16.31
2018-09-07T05:27:56.186Z,16.27
2018-09-07T05:28:56.463Z,16.3
2018-09-07T05:29:56.487Z,16.38
2018-09-07T05:30:56.556Z,16.3
2018-09-07T05:31:56.295Z,16.28
2018-09-07T05:32:56.292Z,16.27
2018-09-07T05:33:56.318Z,16.24
2018-09-07T05:34:56.334Z,16.27
2018-09-07T05:35:56.360Z,16.28
2018-09-07T05:36:56.645Z,16.24
2018-09-07T05:37:56.659Z,16.23
2018-09-07T05:38:56.684Z,16.27
2018-09-07T05:39:56.705Z,16.27
2018-09-07T05:40:56.728Z,16.27
2018-09-07T05:42:11.412Z,16.31
2018-09-07T05:45:56.844Z,16.35
2018-09-07T05:46:56.611Z,16.27
2018-09-07T05:47:56.892Z,16.46
2018-09-07T05:48:56.912Z,16.43
2018-09-07T05:49:56.791Z,16.28
2018-09-07T05:50:56.960Z,16.43
2018-09-07T05:51:56.718Z,16.28
2018-09-07T05:52:56.997Z,16.31
2018-09-07T05:53:56.762Z,16.24
2018-09-07T05:54:56.788Z,16.33
2018-09-07T05:55:56.806Z,16.43
2018-09-07T05:56:57.094Z,16.53
2018-09-07T05:58:11.773Z,16.49
2018-09-07T05:58:57.136Z,16.48
2018-09-07T05:59:57.161Z,16.46
2018-09-07T06:00:57.180Z,16.41
2018-09-07T06:01:57.202Z,16.49
2018-09-07T06:04:11.911Z,16.41
2018-09-07T06:04:57.285Z,16.33
2018-09-07T06:05:57.290Z,16.35
2018-09-07T06:07:11.975Z,16.43
2018-09-07T06:07:57.339Z,16.39
2018-09-07T06:08:57.366Z,16.45
2018-09-07T06:09:57.386Z,16.39
2018-09-07T06:10:57.147Z,16.34
2018-09-07T06:12:57.453Z,16.45
2018-09-07T06:14:57.243Z,16.46
2018-09-07T06:15:57.755Z,16.41
2018-09-07T06:16:57.539Z,16.46
2018-09-07T06:17:57.565Z,16.49
2018-09-07T06:18:57.586Z,16.5
2018-09-07T06:19:57.609Z,16.49
2018-09-07T06:20:57.633Z,16.57
2018-09-07T06:21:57.650Z,16.63
2018-09-07T06:22:57.676Z,16.58
2018-09-07T06:23:57.807Z,16.68
2018-09-07T06:25:12.383Z,16.79
2018-09-07T06:25:57.492Z,16.86
2018-09-07T06:26:57.517Z,16.93
2018-09-07T06:27:58.106Z,16.98
2018-09-07T06:28:57.555Z,17.03
2018-09-07T06:30:12.495Z,17.16
2018-09-07T06:30:57.600Z,17.08
2018-09-07T06:31:57.624Z,17.03
2018-09-07T06:32:57.762Z,17.15
2018-09-07T06:34:57.949Z,17.21
2018-09-07T06:35:57.970Z,17.16
2018-09-07T06:36:58.316Z,17.23
2018-09-07T06:38:12.683Z,17.12
2018-09-07T06:38:57.943Z,17.23
2018-09-07T06:39:58.076Z,17.19
2018-09-07T06:40:58.089Z,17.23
2018-09-07T06:41:58.111Z,17.25
2018-09-07T06:42:58.133Z,17.3
2018-09-07T06:43:58.158Z,17.33
2018-09-07T06:45:12.849Z,17.3
2018-09-07T06:45:58.210Z,17.3
2018-09-07T06:47:57.991Z,17.26
2018-09-07T06:48:58.279Z,17.4
2018-09-07T06:49:58.298Z,17.36
2018-09-07T06:50:58.319Z,17.38
2018-09-07T06:51:58.346Z,17.4
2018-09-07T06:52:58.369Z,17.38
2018-09-07T06:53:58.138Z,17.38
2018-09-07T06:55:12.819Z,17.46
2018-09-07T06:55:58.434Z,17.4
2018-09-07T06:57:58.480Z,17.63
2018-09-07T06:58:58.506Z,17.55
2018-09-07T06:59:58.530Z,17.62
2018-09-07T07:01:58.574Z,17.64
2018-09-07T07:02:58.527Z,17.7
2018-09-07T07:03:58.625Z,17.74
2018-09-07T07:04:58.651Z,17.79
2018-09-07T07:05:58.407Z,17.78
2018-09-07T07:06:58.690Z,17.74
2018-09-07T07:08:13.389Z,17.9
2018-09-07T07:08:58.742Z,17.89
2018-09-07T07:10:13.420Z,17.96
2018-09-07T07:10:58.841Z,18
2018-09-07T07:11:58.807Z,17.96
2018-09-07T07:12:58.824Z,18.12
2018-09-07T07:13:58.595Z,18.15
2018-09-07T07:14:58.879Z,18.1
2018-09-07T07:15:58.900Z,18.25
2018-09-07T07:17:13.584Z,18.3
2018-09-07T07:17:58.700Z,18.27
2018-09-07T07:18:58.977Z,18.41
2018-09-07T07:19:58.995Z,18.37
2018-09-07T07:20:59.026Z,18.39
2018-09-07T07:21:59.052Z,18.47
2018-09-07T07:22:59.096Z,18.45
2018-09-07T07:23:59.085Z,18.36
2018-09-07T07:24:59.107Z,18.44
2018-09-07T07:25:58.882Z,18.37
2018-09-07T07:26:59.156Z,18.52
2018-09-07T07:27:59.237Z,18.57
2018-09-07T07:28:59.211Z,18.58
2018-09-07T07:29:58.727Z,18.55
2018-09-07T07:30:58.990Z,18.69
2018-09-07T07:31:59.273Z,18.63
2018-09-07T07:33:13.964Z,18.81
2018-09-07T07:33:59.317Z,18.76
2018-09-07T07:34:59.346Z,18.85
2018-09-07T07:35:59.376Z,18.87
2018-09-07T07:36:59.144Z,18.9
2018-09-07T07:37:59.420Z,18.94
2018-09-07T07:38:59.182Z,18.92
2018-09-07T07:39:59.463Z,18.95
2018-09-07T07:40:59.227Z,19.06
2018-09-07T07:41:59.512Z,19.07
2018-09-07T07:42:59.536Z,19.14
2018-09-07T07:43:59.304Z,19.21
2018-09-07T07:44:59.581Z,19.22
2018-09-07T07:45:59.605Z,19.19
2018-09-07T07:46:59.630Z,19.25
2018-09-07T07:48:00.291Z,19.29
2018-09-07T07:49:14.077Z,19.32
2018-09-07T07:49:59.697Z,19.31
2018-09-07T07:50:59.475Z,19.33
2018-09-07T07:51:59.752Z,19.36
2018-09-07T07:52:59.768Z,19.32
2018-09-07T07:53:59.800Z,19.37
2018-09-07T07:55:14.482Z,19.29
2018-09-07T07:55:59.581Z,19.31
2018-09-07T07:57:00.260Z,19.32
2018-09-07T07:58:14.295Z,19.37
2018-09-07T07:58:59.918Z,19.41
2018-09-07T07:59:59.937Z,19.37
2018-09-07T08:00:59.964Z,19.37
2018-09-07T08:01:59.985Z,19.37
2018-09-07T08:02:59.757Z,19.37
2018-09-07T08:04:00.080Z,19.47
2018-09-07T08:05:14.715Z,19.59
2018-09-07T08:05:59.817Z,19.66
2018-09-07T08:07:00.103Z,19.73
2018-09-07T08:08:14.792Z,19.69
2018-09-07T08:09:00.150Z,19.76
2018-09-07T08:10:00.172Z,19.58
2018-09-07T08:11:00.196Z,19.61
2018-09-07T08:12:00.219Z,19.68
2018-09-07T08:12:59.997Z,19.61
2018-09-07T08:14:14.929Z,19.56
2018-09-07T08:15:00.290Z,19.61
2018-09-07T08:16:00.371Z,19.5
2018-09-07T08:17:00.340Z,19.56
2018-09-07T08:18:00.109Z,19.51
2018-09-07T08:19:00.178Z,19.5
2018-09-07T08:20:15.073Z,19.47
2018-09-07T08:22:00.461Z,19.36
2018-09-07T08:23:00.488Z,19.36
2018-09-07T08:24:00.507Z,19.44
2018-09-07T08:25:00.280Z,19.36
2018-09-07T08:26:15.220Z,19.47
2018-09-07T08:27:00.577Z,19.48
2018-09-07T08:28:15.264Z,19.46
2018-09-07T08:29:15.341Z,19.58
2018-09-07T08:30:00.655Z,19.55
2018-09-07T08:31:00.434Z,19.55
2018-09-07T08:32:15.409Z,19.66
2018-09-07T08:33:01.507Z,19.68
2018-09-07T08:34:00.745Z,19.58
2018-09-07T08:35:00.767Z,19.62
2018-09-07T08:36:00.792Z,19.51
2018-09-07T08:37:00.822Z,19.66
2018-09-07T08:38:00.845Z,19.56
2018-09-07T08:39:00.874Z,19.65
2018-09-07T08:40:00.371Z,19.69
2018-09-07T08:41:00.663Z,19.78
2018-09-07T08:42:00.932Z,19.77
2018-09-07T08:43:15.623Z,19.77
2018-09-07T08:44:00.979Z,19.78
2018-09-07T08:45:01.011Z,19.8
2018-09-07T08:46:00.782Z,19.92
2018-09-07T08:47:01.055Z,19.94
2018-09-07T08:48:00.823Z,20.02
2018-09-07T08:49:00.846Z,20.1
2018-09-07T08:50:01.137Z,20.18
2018-09-07T08:51:01.153Z,20.24
2018-09-07T08:52:15.845Z,20.43
2018-09-07T08:53:01.200Z,20.51
2018-09-07T08:54:00.976Z,20.57
2018-09-07T08:55:01.605Z,20.62
2018-09-07T08:56:01.281Z,20.67
2018-09-07T08:57:01.303Z,20.48
2018-09-07T08:58:01.059Z,20.55
2018-09-07T08:59:01.087Z,20.59
2018-09-07T09:00:01.209Z,20.59
2018-09-07T09:01:01.135Z,20.58
2018-09-07T09:02:16.076Z,20.59
2018-09-07T09:03:01.182Z,20.59
2018-09-07T09:05:01.494Z,20.7
2018-09-07T09:06:01.519Z,20.67
2018-09-07T09:07:01.541Z,20.77
2018-09-07T09:08:16.224Z,20.79
2018-09-07T09:09:01.332Z,20.91
2018-09-07T09:10:01.609Z,20.99
2018-09-07T09:11:01.650Z,21.13
2018-09-07T09:12:01.656Z,21.24
2018-09-07T09:13:01.434Z,21.42
2018-09-07T09:14:01.709Z,21.44
2018-09-07T09:15:01.475Z,21.49
2018-09-07T09:16:02.069Z,21.52
2018-09-07T09:17:16.442Z,21.65
2018-09-07T09:18:16.211Z,21.64
2018-09-07T09:19:01.573Z,21.68
2018-09-07T09:21:01.620Z,21.71
2018-09-07T09:22:01.649Z,21.75
2018-09-07T09:23:01.926Z,21.71
2018-09-07T09:24:16.865Z,21.72
2018-09-07T09:26:02.004Z,21.56
2018-09-07T09:27:01.768Z,21.69
2018-09-07T09:28:02.151Z,21.79
2018-09-07T09:29:02.073Z,21.91
2018-09-07T09:30:01.854Z,21.96
2018-09-07T09:31:02.129Z,22.03
2018-09-07T09:32:02.168Z,22.07
2018-09-07T09:33:02.335Z,22.1
2018-09-07T09:34:01.958Z,22.14
2018-09-07T09:35:01.965Z,22.06
2018-09-07T09:36:02.349Z,22.24
2018-09-07T09:37:01.863Z,22.47
2018-09-07T09:38:02.039Z,22.76
2018-09-07T09:39:02.325Z,22.94
2018-09-07T09:40:17.009Z,23.15
2018-09-07T09:41:02.371Z,23.32
2018-09-07T09:42:02.399Z,23.57
2018-09-07T09:43:02.423Z,23.66
2018-09-07T09:44:02.459Z,23.65
2018-09-07T09:45:02.222Z,23.61
2018-09-07T09:46:02.503Z,23.55
2018-09-07T09:47:02.533Z,23.48
2018-09-07T09:48:02.549Z,23.38
2018-09-07T09:49:02.364Z,23.32
2018-09-07T09:50:02.603Z,23.32
2018-09-07T09:51:02.630Z,23.33
2018-09-07T09:52:02.652Z,23.31
2018-09-07T09:53:03.308Z,23.33
2018-09-07T09:54:02.709Z,23.33
2018-09-07T09:56:02.500Z,23.04
2018-09-07T09:57:02.915Z,23
2018-09-07T09:58:02.802Z,22.94
2018-09-07T09:59:02.835Z,22.92
2018-09-07T10:00:02.855Z,22.91
2018-09-07T10:01:02.881Z,22.79
2018-09-07T10:02:02.911Z,22.85
2018-09-07T10:03:02.931Z,22.79
2018-09-07T10:04:17.620Z,22.95
2018-09-07T10:05:02.985Z,22.95
2018-09-07T10:06:03.009Z,22.97
2018-09-07T10:07:03.037Z,23
2018-09-07T10:08:03.059Z,23.15
2018-09-07T10:09:03.084Z,23.22
2018-09-07T10:10:02.853Z,23.32
2018-09-07T10:12:02.945Z,23.4
2018-09-07T10:13:03.192Z,23.55
2018-09-07T10:14:03.213Z,23.36
2018-09-07T10:15:03.242Z,23.36
2018-09-07T10:17:17.952Z,23.69
2018-09-07T10:18:03.314Z,23.84
2018-09-07T10:19:03.239Z,24
2018-09-07T10:20:03.368Z,24.25
2018-09-07T10:21:03.392Z,24.57
2018-09-07T10:22:03.420Z,24.91
2018-09-07T10:23:03.445Z,25.05
2018-09-07T10:24:03.473Z,25.06
2018-09-07T10:25:03.497Z,24.98
2018-09-07T10:27:17.983Z,24.76
2018-09-07T10:28:03.577Z,24.64
2018-09-07T10:29:03.596Z,24.65
2018-09-07T10:30:03.371Z,24.69
2018-09-07T10:31:03.398Z,24.6
2018-09-07T10:32:03.419Z,24.45
2018-09-07T10:33:03.447Z,24.57
2018-09-07T10:34:03.729Z,24.6
2018-09-07T10:35:03.506Z,24.57
2018-09-07T10:36:18.440Z,24.47
2018-09-07T10:37:03.804Z,24.43
2018-09-07T10:38:03.570Z,24.42
2018-09-07T10:39:03.599Z,24.3
2018-09-07T10:42:03.778Z,23.83
2018-09-07T10:43:18.622Z,23.78
2018-09-07T10:44:03.771Z,23.85
2018-09-07T10:45:03.495Z,23.7
2018-09-07T10:46:03.782Z,23.78
2018-09-07T10:47:03.806Z,23.55
2018-09-07T10:48:04.090Z,23.63
2018-09-07T10:49:03.860Z,23.6
2018-09-07T10:50:03.887Z,23.54
2018-09-07T10:51:04.164Z,23.6
2018-09-07T10:52:03.933Z,23.43
2018-09-07T10:53:04.290Z,23.46
2018-09-07T10:54:03.986Z,23.39
2018-09-07T10:55:04.272Z,23.28
2018-09-07T10:56:04.294Z,23.33
2018-09-07T10:57:04.319Z,23.38
2018-09-07T10:59:19.231Z,23.47
2018-09-07T11:00:04.147Z,23.53
2018-09-07T11:02:03.931Z,23.46
2018-09-07T11:03:04.486Z,23.28
2018-09-07T11:04:04.506Z,22.98
2018-09-07T11:05:04.530Z,22.95
2018-09-07T11:06:19.212Z,22.9
2018-09-07T11:07:04.317Z,22.95
2018-09-07T11:08:04.085Z,22.8
2018-09-07T11:09:04.371Z,22.68
2018-09-07T11:11:04.419Z,22.73
2018-09-07T11:12:04.701Z,22.7
2018-09-07T11:13:04.573Z,22.68
2018-09-07T11:14:04.604Z,22.67
2018-09-07T11:15:19.447Z,22.46
2018-09-07T11:16:04.815Z,22.49
2018-09-07T11:17:04.323Z,22.39
2018-09-07T11:18:04.599Z,22.37
2018-09-07T11:19:04.625Z,22.31
2018-09-07T11:20:04.649Z,22.27
2018-09-07T11:21:04.813Z,22.28
2018-09-07T11:22:04.951Z,22.47
2018-09-07T11:23:04.726Z,22.49
2018-09-07T11:24:04.485Z,22.49
2018-09-07T11:25:05.026Z,22.49
2018-09-07T11:26:04.795Z,22.42
2018-09-07T11:28:04.845Z,22.47
2018-09-07T11:29:05.127Z,22.4
2018-09-07T11:30:19.559Z,22.45
2018-09-07T11:31:05.180Z,22.52
2018-09-07T11:32:05.214Z,22.6
2018-09-07T11:33:05.233Z,22.68
2018-09-07T11:34:05.255Z,22.58
2018-09-07T11:35:05.030Z,22.72
2018-09-07T11:36:05.306Z,22.65
2018-09-07T11:37:05.331Z,22.8
2018-09-07T11:38:05.360Z,22.97
2018-09-07T11:39:05.380Z,22.98
2018-09-07T11:40:05.403Z,23.02
2018-09-07T11:41:05.330Z,23.16
2018-09-07T11:42:05.455Z,23.32
2018-09-07T11:43:05.486Z,23.5
2018-09-07T11:44:05.511Z,23.65
2018-09-07T11:45:05.275Z,23.68
2018-09-07T11:46:05.297Z,23.72
2018-09-07T11:47:05.322Z,23.8
2018-09-07T11:48:05.610Z,23.63
2018-09-07T11:50:05.399Z,23.79
2018-09-07T11:52:05.709Z,23.78
2018-09-07T11:53:05.477Z,23.79
2018-09-07T11:54:05.499Z,23.54
2018-09-07T11:55:20.445Z,23.46
2018-09-07T11:56:05.549Z,23.57
2018-09-07T11:57:05.836Z,23.55
2018-09-07T11:58:05.796Z,23.7
2018-09-07T11:59:05.628Z,23.78
2018-09-07T12:00:20.584Z,23.87
2018-09-07T12:01:05.681Z,24.05
2018-09-07T12:02:20.626Z,24.1
2018-09-07T12:03:05.986Z,24.13
2018-09-07T12:04:05.821Z,24.18
2018-09-07T12:05:05.522Z,24.13
2018-09-07T12:06:05.808Z,24.06
2018-09-07T12:07:06.088Z,24.09
2018-09-07T12:08:06.119Z,24.27
2018-09-07T12:10:05.905Z,24.57
2018-09-07T12:11:20.849Z,24.91
2018-09-07T12:12:05.956Z,25.03
2018-09-07T12:13:06.882Z,25.2
2018-09-07T12:14:05.753Z,25.25
2018-09-07T12:15:06.292Z,25.36
2018-09-07T12:17:06.092Z,25.52
2018-09-07T12:18:21.030Z,25.61
2018-09-07T12:20:06.422Z,25.57
2018-09-07T12:21:06.612Z,25.54
2018-09-07T12:22:06.481Z,25.55
2018-09-07T12:23:06.502Z,25.6
2018-09-07T12:25:20.960Z,25.03
2018-09-07T12:26:06.317Z,25.06
2018-09-07T12:27:06.347Z,25.06
2018-09-07T12:28:06.433Z,25.3
2018-09-07T12:29:06.664Z,25.28
2018-09-07T12:30:06.427Z,25.27
2018-09-07T12:31:06.453Z,25.38
2018-09-07T12:32:06.221Z,25.28
2018-09-07T12:33:06.651Z,25.28
2018-09-07T12:34:21.446Z,25.42
2018-09-07T12:35:06.295Z,25.39
2018-09-07T12:36:06.837Z,25.45
2018-09-07T12:38:06.898Z,25.43
2018-09-07T12:40:21.608Z,25.54
2018-09-07T12:41:21.473Z,25.7
2018-09-07T12:42:07.305Z,25.73
2018-09-07T12:43:06.765Z,25.77
2018-09-07T12:44:07.054Z,26.01
2018-09-07T12:45:06.816Z,25.91
2018-09-07T12:46:07.102Z,26.01
2018-09-07T12:47:06.618Z,26.01
2018-09-07T12:48:07.160Z,26.09
2018-09-07T12:49:07.186Z,26.21
2018-09-07T12:50:21.611Z,26.01
2018-09-07T12:51:07.233Z,26.05
2018-09-07T12:53:07.284Z,25.92
2018-09-07T12:54:07.313Z,25.92
2018-09-07T12:55:07.340Z,25.92
2018-09-07T12:57:07.137Z,26.05
2018-09-07T12:58:07.418Z,26.13
2018-09-07T12:59:07.447Z,26.05
2018-09-07T13:00:07.212Z,25.99
2018-09-07T13:01:07.238Z,25.9
2018-09-07T13:02:07.529Z,26.05
2018-09-07T13:03:07.606Z,25.99
2018-09-07T13:04:07.576Z,25.88
2018-09-07T13:05:22.009Z,25.9
2018-09-07T13:06:07.637Z,26.05
2018-09-07T13:07:07.660Z,26.05
2018-09-07T13:08:07.493Z,26.06
2018-09-07T13:09:07.454Z,26.05
2018-09-07T13:10:07.740Z,25.97
2018-09-07T13:11:07.762Z,26.1
2018-09-07T13:12:07.785Z,26.07
2018-09-07T13:13:07.558Z,26.23
2018-09-07T13:14:07.844Z,26.29
2018-09-07T13:15:07.871Z,26.18
2018-09-07T13:17:07.662Z,26.2
2018-09-07T13:18:07.954Z,26.32
2018-09-07T13:19:07.977Z,26.32
2018-09-07T13:20:07.485Z,26.51
2018-09-07T13:22:08.056Z,26.44
2018-09-07T13:24:07.852Z,26.39
2018-09-07T13:26:07.903Z,26.47
2018-09-07T13:27:08.191Z,26.4
2018-09-07T13:28:22.894Z,26.48
2018-09-07T13:29:07.988Z,26.45
2018-09-07T13:30:08.015Z,26.44
2018-09-07T13:31:08.295Z,26.43
2018-09-07T13:32:08.064Z,26.44
2018-09-07T13:33:08.345Z,26.5
2018-09-07T13:34:08.117Z,26.54
2018-09-07T13:35:08.401Z,26.5
2018-09-07T13:36:08.429Z,26.39
2018-09-07T13:37:22.865Z,26.32
2018-09-07T13:39:08.519Z,26.43
2018-09-07T13:42:08.592Z,26.5
2018-09-07T13:43:08.614Z,26.47
2018-09-07T13:44:23.305Z,26.47
2018-09-07T13:45:08.408Z,26.45
2018-09-07T13:46:08.438Z,26.32
2018-09-07T13:47:08.721Z,26.45
2018-09-07T13:48:08.492Z,26.37
2018-09-07T13:49:08.517Z,26.39
2018-09-07T13:50:08.801Z,26.44
2018-09-07T13:51:08.574Z,26.47
2018-09-07T13:52:08.855Z,26.48
2018-09-07T13:53:23.285Z,26.4
2018-09-07T13:54:08.907Z,26.32
2018-09-07T13:55:08.419Z,26.28
2018-09-07T13:56:08.706Z,26.29
2018-09-07T13:57:08.990Z,26.32